Time;durP1;ratioP1;P1;durP2;ratioP2;P2;SDS_P1;SDS_P2;PMS_P1;PMS_P2;Temp;Humidity;BMP_temperature;BMP_pressure;BME280_temperature;BME280_humidity;BME280_pressure;Samples;Min_cycle;Max_cycle;Signal;HPM_P1;HPM_P2
2021/12/26 00:00:30;;;;;;;67.47;20.38;;;-5.90;99.90;;;;;;5012502;28;20046;-73
2021/12/26 00:02:57;;;;;;;41.22;13.30;;;-4.80;99.90;;;;;;4996761;28;20069;-74
2021/12/26 00:05:23;;;;;;;20.23;7.80;;;-3.10;99.90;;;;;;4979445;28;20092;-73
2021/12/26 00:07:49;;;;;;;8.27;4.28;;;-5.50;99.90;;;;;;4996550;28;20133;-73
2021/12/26 00:10:18;;;;;;;5.32;2.85;;;-5.60;99.90;;;;;;5021913;28;20042;-73
2021/12/26 00:12:44;;;;;;;3.25;1.70;;;-4.40;99.90;;;;;;4977723;28;20045;-73
2021/12/26 00:15:10;;;;;;;3.30;1.60;;;-6.10;99.90;;;;;;4993176;28;20043;-74
2021/12/26 00:17:36;;;;;;;3.25;1.15;;;-5.70;99.90;;;;;;4993648;28;20050;-74
2021/12/26 00:20:05;;;;;;;4.22;1.50;;;-5.60;99.90;;;;;;4992260;28;20054;-74
2021/12/26 00:22:31;;;;;;;5.10;1.33;;;-5.70;99.90;;;;;;4976836;28;20047;-74
2021/12/26 00:24:57;;;;;;;3.92;1.50;;;-5.90;99.90;;;;;;4976867;28;20398;-76
2021/12/26 00:27:22;;;;;;;4.18;1.88;;;-5.80;99.90;;;;;;4992080;28;20556;-74
2021/12/26 00:29:48;;;;;;;5.45;1.85;;;-5.60;99.90;;;;;;4963497;28;20051;-74
2021/12/26 00:32:14;;;;;;;4.75;1.70;;;-5.30;99.90;;;;;;4993704;28;20042;-73
2021/12/26 00:34:40;;;;;;;5.28;1.90;;;-5.10;99.90;;;;;;4991739;28;20121;-74
2021/12/26 00:37:07;;;;;;;4.75;1.40;;;-5.70;99.90;;;;;;4992290;28;20077;-73
2021/12/26 00:39:34;;;;;;;8.63;2.20;;;-5.80;99.90;;;;;;4976092;28;20591;-74
2021/12/26 00:42:01;;;;;;;4.65;1.70;;;-6.00;99.90;;;;;;4983658;28;20403;-73
2021/12/26 00:44:27;;;;;;;8.00;1.80;;;-5.70;99.90;;;;;;4991922;28;20565;-74
2021/12/26 00:46:55;;;;;;;4.93;1.77;;;-4.60;99.90;;;;;;4976145;28;20050;-74
2021/12/26 00:49:22;;;;;;;2.88;1.27;;;-5.70;99.90;;;;;;4991951;28;20057;-73
2021/12/26 00:51:49;;;;;;;1.48;1.13;;;-5.90;99.90;;;;;;4992629;28;20388;-74
2021/12/26 00:54:16;;;;;;;5.75;1.40;;;-5.70;99.90;;;;;;4968240;28;20039;-74
2021/12/26 00:56:41;;;;;;;1.45;1.00;;;-5.80;99.90;;;;;;5005666;28;20050;-73
2021/12/26 00:59:07;;;;;;;2.28;1.15;;;;;;;;;;4991980;28;20065;-74
2021/12/26 01:01:34;;;;;;;5.25;1.63;;;-5.90;99.90;;;;;;4990842;28;20072;-73
2021/12/26 01:04:00;;;;;;;3.58;1.35;;;-6.10;99.90;;;;;;4992513;28;20096;-74
2021/12/26 01:06:27;;;;;;;3.42;0.70;;;-6.00;99.90;;;;;;4975810;28;20043;-74
2021/12/26 01:08:53;;;;;;;4.70;1.30;;;-6.20;99.90;;;;;;4965947;28;20503;-74
2021/12/26 01:11:34;;;;;;;2.30;1.48;;;-5.90;99.90;;;;;;4976465;28;20096;-74
2021/12/26 01:14:04;;;;;;;3.28;1.42;;;-4.70;99.90;;;;;;4992954;28;20041;-75
2021/12/26 01:16:30;;;;;;;2.15;0.93;;;-6.10;99.90;;;;;;4974541;28;20410;-74
2021/12/26 01:19:03;;;;;;;7.28;1.30;;;-5.80;99.90;;;;;;4969979;28;20046;-73
2021/12/26 01:21:29;;;;;;;3.10;0.93;;;-4.40;99.90;;;;;;4973028;28;20046;-74
2021/12/26 01:23:59;;;;;;;6.53;1.13;;;-6.00;99.90;;;;;;4975189;28;20384;-74
2021/12/26 01:26:26;;;;;;;3.97;0.98;;;-6.20;99.90;;;;;;4990565;28;20049;-74
2021/12/26 01:28:52;;;;;;;1.38;1.00;;;-6.00;99.90;;;;;;4988138;28;20058;-75
2021/12/26 01:31:20;;;;;;;2.03;0.98;;;-4.60;99.90;;;;;;4969020;28;20129;-74
2021/12/26 01:33:48;;;;;;;4.90;1.27;;;-6.20;99.90;;;;;;4975741;28;20413;-74
2021/12/26 01:36:16;;;;;;;4.18;1.20;;;-5.10;99.90;;;;;;4975512;28;20548;-73
2021/12/26 01:38:42;;;;;;;2.85;0.93;;;-5.30;99.90;;;;;;4973394;28;20034;-74
2021/12/26 01:41:11;;;;;;;1.98;0.88;;;-5.60;99.90;;;;;;4992323;28;20049;-75
2021/12/26 01:43:40;;;;;;;2.47;0.77;;;-6.20;99.90;;;;;;4991158;28;20054;-74
2021/12/26 01:46:06;;;;;;;3.25;1.10;;;-6.00;99.90;;;;;;5014348;28;20162;-74
2021/12/26 01:48:32;;;;;;;1.58;1.13;;;;;;;;;;4983869;28;20129;-74
2021/12/26 01:50:58;;;;;;;2.38;1.10;;;-5.90;99.90;;;;;;4991027;28;20046;-74
2021/12/26 01:53:26;;;;;;;7.45;1.35;;;-5.30;99.90;;;;;;4974541;28;20406;-74
2021/12/26 01:55:53;;;;;;;2.35;1.38;;;-6.20;99.90;;;;;;4991258;28;20082;-73
2021/12/26 01:58:28;;;;;;;4.35;1.17;;;-6.00;99.90;;;;;;4984665;28;20499;-73
2021/12/26 02:01:06;;;;;;;3.10;1.42;;;-5.90;99.90;;;;;;5004756;28;20043;-74
2021/12/26 02:03:32;;;;;;;2.85;1.13;;;-5.90;99.90;;;;;;4974838;28;20042;-74
2021/12/26 02:05:58;;;;;;;5.07;1.90;;;-6.00;99.90;;;;;;4974721;28;20048;-73
2021/12/26 02:08:24;;;;;;;1.90;1.20;;;-6.00;99.90;;;;;;4964002;28;20479;-74
2021/12/26 02:10:50;;;;;;;6.18;1.63;;;-6.00;99.90;;;;;;4973256;28;20046;-73
2021/12/26 02:13:16;;;;;;;2.78;0.95;;;-4.50;99.90;;;;;;4988508;28;20042;-73
2021/12/26 02:15:42;;;;;;;5.10;1.10;;;-6.20;99.90;;;;;;4990629;28;20054;-75
2021/12/26 02:18:08;;;;;;;1.30;0.82;;;-7.80;99.90;;;;;;4966612;28;20487;-73
2021/12/26 02:23:34;;;;;;;2.28;1.23;;;-3.60;99.90;;;;;;5018208;28;20042;-72
2021/12/26 02:28:41;;;;;;;2.38;1.10;;;-4.00;99.90;;;;;;4982922;28;20063;-73
2021/12/26 02:31:07;;;;;;;1.98;0.98;;;-4.40;99.90;;;;;;5016197;28;20038;-74
2021/12/26 02:33:34;;;;;;;2.65;1.20;;;-3.80;99.90;;;;;;4989837;28;20132;-74
2021/12/26 02:36:00;;;;;;;1.33;0.70;;;-6.00;99.90;;;;;;5007148;28;20050;-73
2021/12/26 02:38:26;;;;;;;3.63;1.45;;;-6.00;99.90;;;;;;4963987;28;20043;-74
2021/12/26 02:40:54;;;;;;;4.90;1.48;;;-6.10;99.90;;;;;;4981172;28;20046;-73
2021/12/26 02:43:21;;;;;;;2.72;1.13;;;-6.10;99.90;;;;;;4983827;28;20038;-73
2021/12/26 02:45:48;;;;;;;2.03;0.93;;;-6.10;99.90;;;;;;4974904;28;20065;-74
2021/12/26 02:48:14;;;;;;;2.47;1.10;;;-5.00;99.90;;;;;;4969961;28;20050;-73
2021/12/26 02:50:41;;;;;;;2.38;0.95;;;-3.90;99.90;;;;;;4974039;28;20039;-73
2021/12/26 02:53:11;;;;;;;2.33;0.90;;;-6.00;99.90;;;;;;4983147;28;20482;-73
2021/12/26 02:55:36;;;;;;;5.25;1.08;;;-5.40;99.90;;;;;;4963180;28;20616;-73
2021/12/26 02:58:08;;;;;;;3.03;0.88;;;-6.00;99.90;;;;;;4987009;28;20043;-74
2021/12/26 03:00:41;;;;;;;2.42;0.70;;;-6.10;99.90;;;;;;4970252;28;20046;-73
2021/12/26 03:03:07;;;;;;;2.13;0.75;;;-6.20;99.90;;;;;;4968495;28;20125;-73
2021/12/26 03:05:37;;;;;;;3.17;0.80;;;-4.60;99.90;;;;;;4974241;28;20050;-73
2021/12/26 03:08:04;;;;;;;2.95;1.05;;;-6.10;99.90;;;;;;4977806;28;20349;-74
2021/12/26 03:10:30;;;;;;;1.65;1.02;;;-6.10;99.90;;;;;;4977468;28;20463;-74
2021/12/26 03:12:58;;;;;;;1.17;0.80;;;-6.30;99.90;;;;;;4978490;28;20081;-74
2021/12/26 03:15:25;;;;;;;1.65;0.77;;;-6.20;99.90;;;;;;4992766;28;20038;-76
2021/12/26 03:17:53;;;;;;;1.95;0.95;;;-4.10;99.90;;;;;;4990148;28;20094;-73
2021/12/26 03:20:23;;;;;;;3.15;0.93;;;-6.10;99.90;;;;;;4994057;28;20041;-74
2021/12/26 03:22:48;;;;;;;2.60;1.00;;;-6.30;99.90;;;;;;4994233;28;20054;-73
2021/12/26 03:25:21;;;;;;;2.78;1.05;;;-6.10;99.90;;;;;;4994347;28;20104;-73
2021/12/26 03:27:48;;;;;;;2.05;0.77;;;-6.00;99.90;;;;;;4993253;28;20089;-74
2021/12/26 03:30:17;;;;;;;1.60;0.80;;;-5.40;99.90;;;;;;5019682;28;20042;-74
2021/12/26 03:32:43;;;;;;;3.05;0.70;;;-6.10;99.90;;;;;;5010235;28;20049;-73
2021/12/26 03:35:10;;;;;;;2.47;0.80;;;-6.10;99.90;;;;;;4985958;28;20042;-74
2021/12/26 03:37:37;;;;;;;1.38;0.70;;;-6.10;99.90;;;;;;4992618;28;20128;-73
2021/12/26 03:40:04;;;;;;;3.42;0.98;;;-6.20;99.90;;;;;;4970409;28;20421;-74
2021/12/26 03:42:31;;;;;;;4.00;0.77;;;-4.70;99.90;;;;;;4993734;28;20046;-74
2021/12/26 03:44:57;;;;;;;2.90;0.60;;;-4.90;99.90;;;;;;4977295;28;20077;-74
2021/12/26 03:47:23;;;;;;;2.83;0.85;;;-5.80;99.90;;;;;;4976801;28;20497;-75
2021/12/26 03:49:50;;;;;;;1.73;0.82;;;-5.90;99.90;;;;;;4970011;28;20070;-74
2021/12/26 03:52:16;;;;;;;1.17;0.85;;;-6.30;99.90;;;;;;4993667;28;20088;-73
2021/12/26 03:54:42;;;;;;;1.30;0.77;;;-5.60;99.90;;;;;;4993349;28;20154;-73
2021/12/26 03:57:07;;;;;;;2.33;0.80;;;-6.30;99.90;;;;;;4993381;28;20494;-74
2021/12/26 03:59:33;;;;;;;1.83;1.00;;;-6.40;99.90;;;;;;4964721;28;20077;-73
2021/12/26 04:01:59;;;;;;;1.60;0.88;;;-6.20;99.90;;;;;;4977368;28;20039;-74
2021/12/26 04:04:25;;;;;;;5.03;1.10;;;-6.00;99.90;;;;;;4975254;28;20054;-74
2021/12/26 04:06:51;;;;;;;2.47;0.88;;;-7.20;99.90;;;;;;4976886;28;20050;-74
2021/12/26 04:09:17;;;;;;;2.15;1.05;;;-6.40;99.90;;;;;;4993363;28;20042;-73
2021/12/26 04:11:45;;;;;;;3.58;0.80;;;-3.60;99.90;;;;;;4992938;28;20058;-74
2021/12/26 04:14:14;;;;;;;3.45;1.38;;;-6.30;99.90;;;;;;4991697;28;20105;-73
2021/12/26 04:16:40;;;;;;;2.28;1.00;;;-6.00;99.90;;;;;;4992080;28;20054;-73
2021/12/26 04:19:06;;;;;;;3.97;1.02;;;-6.40;99.90;;;;;;4992552;28;20038;-73
2021/12/26 04:21:32;;;;;;;2.65;0.88;;;-8.50;99.90;;;;;;4976672;28;20039;-75
2021/12/26 04:23:58;;;;;;;2.75;1.40;;;-4.00;99.90;;;;;;4977521;28;20050;-75
2021/12/26 04:26:24;;;;;;;2.58;1.17;;;-6.50;99.90;;;;;;4992139;28;20041;-74
2021/12/26 04:28:50;;;;;;;1.42;0.80;;;-6.50;99.90;;;;;;4993138;28;20042;-73
2021/12/26 04:31:15;;;;;;;2.53;1.35;;;-7.80;99.90;;;;;;4976682;28;20042;-73
2021/12/26 04:33:42;;;;;;;1.83;0.98;;;-6.40;99.90;;;;;;4992119;28;20085;-73
2021/12/26 04:36:08;;;;;;;2.13;0.95;;;-6.40;99.90;;;;;;4975174;28;20049;-73
2021/12/26 04:38:34;;;;;;;2.33;1.10;;;-6.60;99.90;;;;;;4976302;28;20054;-74
2021/12/26 04:41:00;;;;;;;2.65;1.10;;;-6.30;99.90;;;;;;4992926;28;20503;-74
2021/12/26 04:43:27;;;;;;;3.35;0.93;;;-6.40;99.90;;;;;;4992927;28;20086;-73
2021/12/26 04:45:53;;;;;;;2.25;1.38;;;-6.60;99.90;;;;;;4992471;28;20101;-73
2021/12/26 04:48:18;;;;;;;2.63;0.80;;;-6.40;99.90;;;;;;4975483;28;20117;-73
2021/12/26 04:50:44;;;;;;;3.47;1.50;;;-6.30;99.90;;;;;;4992954;28;20074;-73
2021/12/26 04:53:10;;;;;;;3.10;1.08;;;-4.10;99.90;;;;;;4976606;28;20046;-73
2021/12/26 04:55:36;;;;;;;4.20;1.40;;;-6.70;99.90;;;;;;4991178;28;20049;-73
2021/12/26 04:58:02;;;;;;;4.60;1.52;;;-6.40;99.90;;;;;;4976946;28;20406;-73
2021/12/26 05:00:31;;;;;;;5.25;0.95;;;-6.00;99.90;;;;;;4979346;28;20034;-74
2021/12/26 05:02:58;;;;;;;2.05;1.30;;;-6.30;99.90;;;;;;4991650;28;20096;-73
2021/12/26 05:05:26;;;;;;;2.47;1.08;;;-6.50;99.90;;;;;;4992030;28;20056;-73
2021/12/26 05:07:54;;;;;;;3.20;1.27;;;-6.40;99.90;;;;;;4991819;28;20042;-74
2021/12/26 05:10:21;;;;;;;4.35;0.90;;;-6.40;99.90;;;;;;4993310;28;20502;-73
2021/12/26 05:12:47;;;;;;;2.92;1.50;;;-6.40;99.90;;;;;;4992499;28;20035;-73
2021/12/26 05:15:13;;;;;;;1.40;1.25;;;-6.40;99.90;;;;;;4991043;28;20093;-73
2021/12/26 05:17:40;;;;;;;5.38;1.60;;;-7.00;99.90;;;;;;4991321;28;20058;-74
2021/12/26 05:20:08;;;;;;;1.90;0.73;;;-6.40;99.90;;;;;;4976169;28;20050;-73
2021/12/26 05:22:34;;;;;;;1.58;1.08;;;-6.30;99.90;;;;;;4991136;28;20625;-74
2021/12/26 05:24:59;;;;;;;2.97;1.33;;;-6.50;99.90;;;;;;4976320;28;20128;-73
2021/12/26 05:27:25;;;;;;;4.97;1.67;;;-6.60;99.90;;;;;;4991253;28;20500;-74
2021/12/26 05:29:51;;;;;;;3.17;0.98;;;-6.50;99.90;;;;;;4991234;28;20046;-73
2021/12/26 05:32:17;;;;;;;3.17;1.20;;;-6.40;99.90;;;;;;4991833;28;20383;-73
2021/12/26 05:34:42;;;;;;;2.15;1.15;;;-6.50;99.90;;;;;;4965922;28;20158;-74
2021/12/26 05:37:08;;;;;;;1.67;1.20;;;-4.90;99.90;;;;;;4991968;28;20482;-73
2021/12/26 05:39:34;;;;;;;2.08;1.08;;;-6.50;99.90;;;;;;4991335;28;20050;-73
2021/12/26 05:42:00;;;;;;;3.05;1.10;;;-7.00;99.90;;;;;;4991465;28;20410;-73
2021/12/26 05:44:26;;;;;;;1.85;0.95;;;-6.50;99.90;;;;;;4990598;28;20049;-74
2021/12/26 05:46:51;;;;;;;1.85;0.85;;;-6.40;99.90;;;;;;4991430;28;20046;-75
2021/12/26 05:49:17;;;;;;;3.25;1.27;;;-3.80;99.90;;;;;;4991022;28;20569;-74
2021/12/26 05:51:43;;;;;;;1.77;1.08;;;-6.50;99.90;;;;;;4992157;28;20043;-74
2021/12/26 05:54:09;;;;;;;1.80;0.90;;;-6.40;99.90;;;;;;4992877;28;20483;-73
2021/12/26 05:56:35;;;;;;;2.53;1.30;;;-4.10;99.90;;;;;;4990389;28;20084;-73
2021/12/26 05:59:00;;;;;;;2.55;0.80;;;-6.50;99.90;;;;;;4991936;28;20050;-74
2021/12/26 06:01:26;;;;;;;3.72;1.05;;;-6.50;99.90;;;;;;4991440;28;20046;-73
2021/12/26 06:03:52;;;;;;;4.22;0.88;;;-6.20;99.90;;;;;;4971196;28;20461;-73
2021/12/26 06:06:18;;;;;;;5.75;0.90;;;-6.60;99.90;;;;;;4990685;28;20038;-73
2021/12/26 06:08:43;;;;;;;1.23;0.88;;;-6.50;99.90;;;;;;4975385;28;20084;-74
2021/12/26 06:11:09;;;;;;;2.75;1.00;;;-8.90;99.90;;;;;;4963779;28;20042;-73
2021/12/26 06:13:35;;;;;;;1.48;0.75;;;-5.50;99.90;;;;;;4974263;28;20878;-74
2021/12/26 06:16:00;;;;;;;5.45;1.20;;;-6.50;99.90;;;;;;4974289;28;20133;-73
2021/12/26 06:18:26;;;;;;;3.38;1.20;;;-6.30;99.90;;;;;;4974028;28;20101;-73
2021/12/26 06:20:52;;;;;;;1.73;1.25;;;-6.60;99.90;;;;;;4975151;28;20124;-75
2021/12/26 06:23:18;;;;;;;4.88;1.02;;;-6.50;99.90;;;;;;4974524;28;20042;-74
2021/12/26 06:25:44;;;;;;;3.75;1.83;;;-6.50;99.90;;;;;;4962676;28;20058;-74
2021/12/26 06:28:09;;;;;;;2.72;1.20;;;-6.60;99.90;;;;;;4974377;28;20078;-76
2021/12/26 06:30:35;;;;;;;2.47;1.00;;;-6.60;99.90;;;;;;4990146;28;20077;-75
2021/12/26 06:33:01;;;;;;;3.53;1.02;;;-7.60;99.90;;;;;;4990207;28;20043;-74
2021/12/26 06:35:27;;;;;;;3.88;1.58;;;-5.10;99.90;;;;;;4989946;28;20042;-74
2021/12/26 06:37:53;;;;;;;2.05;1.20;;;-6.60;99.90;;;;;;4989810;28;20435;-75
2021/12/26 06:40:19;;;;;;;1.73;0.98;;;-6.50;99.90;;;;;;4989858;28;20042;-74
2021/12/26 06:42:46;;;;;;;3.78;1.10;;;-7.10;99.90;;;;;;4975200;28;20045;-74
2021/12/26 06:45:15;;;;;;;2.95;1.00;;;-6.30;99.90;;;;;;4963186;28;20514;-76
2021/12/26 06:47:45;;;;;;;2.60;1.20;;;-6.00;99.90;;;;;;4989687;28;20502;-74
2021/12/26 06:50:11;;;;;;;4.28;1.80;;;-6.60;99.90;;;;;;4990679;28;20121;-74
2021/12/26 06:52:37;;;;;;;2.40;1.05;;;-5.30;99.90;;;;;;4989802;28;20413;-74
2021/12/26 06:55:04;;;;;;;3.70;1.25;;;-5.40;99.90;;;;;;4989840;28;20065;-74
2021/12/26 06:57:30;;;;;;;6.60;1.70;;;-6.20;99.90;;;;;;4990377;28;20046;-74
2021/12/26 06:59:56;;;;;;;4.22;1.30;;;-6.50;99.90;;;;;;4991638;28;20130;-74
2021/12/26 07:02:21;;;;;;;2.83;1.30;;;-6.30;99.90;;;;;;4990039;28;20031;-74
2021/12/26 07:04:47;;;;;;;2.10;1.52;;;-6.50;99.90;;;;;;4990418;28;20525;-74
2021/12/26 07:07:13;;;;;;;2.88;1.60;;;-5.90;99.90;;;;;;4990184;28;20497;-74
2021/12/26 07:09:42;;;;;;;1.80;1.13;;;-6.40;99.90;;;;;;4989936;28;20070;-73
2021/12/26 07:12:09;;;;;;;3.85;1.65;;;-6.50;99.90;;;;;;4967014;28;20403;-78
2021/12/26 07:14:34;;;;;;;3.80;1.52;;;-6.60;99.90;;;;;;4991702;28;20448;-78
2021/12/26 07:17:00;;;;;;;3.60;1.33;;;-5.00;99.90;;;;;;4977338;28;20053;-75
2021/12/26 07:19:26;;;;;;;7.05;1.92;;;-6.60;99.90;;;;;;4975388;28;20092;-74
2021/12/26 07:21:51;;;;;;;7.97;4.50;;;-5.50;99.90;;;;;;4993273;28;20053;-74
2021/12/26 07:24:17;;;;;;;4.07;2.25;;;-6.50;99.90;;;;;;4993306;28;20041;-74
2021/12/26 07:26:43;;;;;;;3.75;1.83;;;-6.80;99.90;;;;;;5010991;28;20148;-76
2021/12/26 07:29:08;;;;;;;7.07;2.35;;;-9.30;99.90;;;;;;4993678;28;20045;-76
2021/12/26 07:31:34;;;;;;;9.57;3.25;;;-6.60;99.90;;;;;;4980662;28;20046;-75
2021/12/26 07:34:00;;;;;;;5.28;2.95;;;-6.30;99.90;;;;;;4999395;28;20059;-73
2021/12/26 07:36:25;;;;;;;13.52;5.05;;;-5.60;99.90;;;;;;4976577;28;20045;-73
2021/12/26 07:38:51;;;;;;;8.82;3.15;;;-6.60;99.90;;;;;;4993966;28;20053;-75
2021/12/26 07:41:17;;;;;;;5.00;3.22;;;-5.20;99.90;;;;;;4977318;28;20411;-73
2021/12/26 07:43:42;;;;;;;2.97;1.58;;;-5.50;99.90;;;;;;5010571;28;20504;-74
2021/12/26 07:46:08;;;;;;;4.18;1.70;;;-6.40;99.90;;;;;;4993166;28;20048;-75
2021/12/26 07:48:33;;;;;;;2.40;2.20;;;-6.50;99.90;;;;;;4976768;28;20045;-75
2021/12/26 07:51:01;;;;;;;2.95;1.58;;;;;;;;;;4992664;28;20077;-73
2021/12/26 07:53:27;;;;;;;2.33;1.40;;;-6.30;99.90;;;;;;4989999;28;20085;-74
2021/12/26 07:55:52;;;;;;;5.60;2.03;;;-5.40;99.90;;;;;;4991548;28;20553;-73
2021/12/26 07:58:18;;;;;;;2.85;1.65;;;-6.70;99.90;;;;;;4995823;28;20126;-73
2021/12/26 08:00:44;;;;;;;5.85;3.78;;;-6.40;99.90;;;;;;4996508;28;20052;-74
2021/12/26 08:03:10;;;;;;;10.77;1.92;;;-3.90;99.90;;;;;;5012017;28;20375;-74
2021/12/26 08:05:36;;;;;;;4.55;2.20;;;-6.10;99.90;;;;;;4994774;28;20058;-75
2021/12/26 08:08:02;;;;;;;3.40;2.03;;;-6.70;99.90;;;;;;4996466;28;20096;-75
2021/12/26 08:10:28;;;;;;;7.30;1.83;;;-6.40;99.90;;;;;;4994537;28;20054;-75
2021/12/26 08:12:53;;;;;;;2.05;1.45;;;-6.50;99.90;;;;;;4977295;28;20429;-73
2021/12/26 08:15:19;;;;;;;5.68;2.20;;;-6.40;99.90;;;;;;5013584;28;20084;-75
2021/12/26 08:17:45;;;;;;;3.70;1.70;;;-6.40;99.90;;;;;;4978364;28;20045;-75
2021/12/26 08:20:10;;;;;;;3.22;1.80;;;-6.40;99.90;;;;;;5013949;28;20045;-77
2021/12/26 08:22:36;;;;;;;5.18;2.25;;;-6.40;99.90;;;;;;5013401;28;20125;-76
2021/12/26 08:25:04;;;;;;;3.15;1.80;;;-6.40;99.90;;;;;;4997942;28;20042;-73
2021/12/26 08:27:29;;;;;;;4.20;1.83;;;-6.40;99.90;;;;;;4996441;28;20077;-75
2021/12/26 08:29:55;;;;;;;4.07;2.08;;;-6.40;99.90;;;;;;4996496;28;20491;-76
2021/12/26 08:32:20;;;;;;;6.68;1.73;;;-6.50;99.90;;;;;;4991552;28;20095;-76
2021/12/26 08:34:46;;;;;;;4.60;1.80;;;-7.80;99.90;;;;;;5007704;28;20046;-74
2021/12/26 08:37:13;;;;;;;4.35;1.98;;;-4.50;99.90;;;;;;4996104;28;20133;-75
2021/12/26 08:39:42;;;;;;;2.25;1.60;;;-5.50;99.90;;;;;;4978783;28;20053;-79
2021/12/26 08:42:10;;;;;;;4.00;2.05;;;-5.30;99.90;;;;;;4996072;28;20100;-76
2021/12/26 08:44:37;;;;;;;3.58;2.00;;;-6.40;99.90;;;;;;4994902;28;20056;-76
2021/12/26 08:47:04;;;;;;;4.80;1.95;;;-6.10;99.90;;;;;;4995401;28;20046;-77
2021/12/26 08:49:30;;;;;;;3.22;1.80;;;-6.20;99.90;;;;;;4995498;28;20046;-75
2021/12/26 08:51:56;;;;;;;12.50;2.42;;;-5.30;99.90;;;;;;4995437;28;20049;-74
2021/12/26 08:54:28;;;;;;;2.80;1.92;;;-4.90;99.90;;;;;;4785820;28;10000601;-74
2021/12/26 08:56:54;;;;;;;4.72;1.73;;;-5.60;99.90;;;;;;4977021;28;20336;-76
2021/12/26 08:59:20;;;;;;;2.72;1.42;;;-6.10;99.90;;;;;;4992723;28;20456;-76
2021/12/26 09:01:46;;;;;;;4.03;1.77;;;-5.90;99.90;;;;;;4977432;28;20390;-77
2021/12/26 09:04:12;;;;;;;3.03;2.10;;;-5.00;99.90;;;;;;4966304;28;20054;-76
2021/12/26 09:06:38;;;;;;;2.97;1.90;;;-6.00;99.90;;;;;;4996343;28;20430;-75
2021/12/26 09:09:05;;;;;;;5.03;2.17;;;-5.00;99.90;;;;;;4978473;28;20050;-73
2021/12/26 09:11:31;;;;;;;2.70;2.20;;;-4.30;99.90;;;;;;4992288;28;20153;-77
2021/12/26 09:13:57;;;;;;;3.63;2.10;;;-5.90;99.90;;;;;;5020154;28;20060;-72
2021/12/26 09:16:23;;;;;;;3.20;2.13;;;-5.80;99.90;;;;;;4986893;28;20200;-73
2021/12/26 09:18:50;;;;;;;2.45;1.50;;;-5.60;99.90;;;;;;4972215;28;20044;-72
2021/12/26 09:21:16;;;;;;;7.57;2.08;;;-5.70;99.90;;;;;;4986269;28;20134;-71
2021/12/26 09:23:41;;;;;;;2.75;2.30;;;-5.70;99.90;;;;;;5004709;28;20414;-71
2021/12/26 09:26:07;;;;;;;2.83;1.95;;;-5.50;99.90;;;;;;5004588;28;20478;-71
2021/12/26 09:28:36;;;;;;;4.00;2.00;;;-5.50;99.90;;;;;;5003472;28;20050;-71
2021/12/26 09:31:03;;;;;;;3.78;2.15;;;-5.60;99.90;;;;;;5005026;28;20050;-71
2021/12/26 09:33:29;;;;;;;2.72;2.22;;;-5.40;99.90;;;;;;5002594;28;20547;-71
2021/12/26 09:35:54;;;;;;;2.45;1.83;;;-5.40;99.90;;;;;;5018079;28;20046;-72
2021/12/26 09:38:20;;;;;;;2.28;1.60;;;-5.50;99.90;;;;;;5004440;28;20489;-72
2021/12/26 09:40:46;;;;;;;3.15;2.00;;;-5.30;99.90;;;;;;4971071;28;20044;-72
2021/12/26 09:43:12;;;;;;;3.08;1.95;;;-5.20;99.90;;;;;;4986386;28;20045;-73
2021/12/26 09:45:38;;;;;;;3.70;2.30;;;-5.90;99.90;;;;;;4986364;28;20049;-72
2021/12/26 09:48:04;;;;;;;3.63;2.22;;;-5.20;99.90;;;;;;5011838;28;20037;-72
2021/12/26 09:50:30;;;;;;;2.63;2.03;;;-4.50;99.90;;;;;;4969561;28;20057;-72
2021/12/26 09:52:55;;;;;;;3.33;2.10;;;-4.20;99.90;;;;;;4970023;28;20069;-72
2021/12/26 09:55:27;;;;;;;3.80;2.15;;;-5.00;99.90;;;;;;5003194;28;20029;-72
2021/12/26 09:57:52;;;;;;;4.55;2.05;;;-4.90;99.90;;;;;;4986558;28;20060;-72
2021/12/26 10:00:29;;;;;;;2.90;2.13;;;-4.90;99.90;;;;;;4971123;28;20058;-72
2021/12/26 10:03:13;;;;;;;2.70;1.83;;;-5.10;99.90;;;;;;4986561;28;20096;-73
2021/12/26 10:05:58;;;;;;;3.45;2.03;;;-4.90;99.90;;;;;;4995500;28;20046;-73
2021/12/26 10:08:24;;;;;;;2.75;2.20;;;-4.60;99.90;;;;;;4972634;28;20056;-73
2021/12/26 10:11:08;;;;;;;4.53;2.55;;;-4.80;99.90;;;;;;4985454;28;20694;-73
2021/12/26 10:13:43;;;;;;;4.80;2.42;;;-4.70;99.90;;;;;;5011029;28;20068;-72
2021/12/26 10:16:09;;;;;;;2.47;2.03;;;-4.60;99.90;;;;;;4985855;28;20098;-72
2021/12/26 10:18:39;;;;;;;3.42;1.73;;;-4.60;99.90;;;;;;5002312;28;20082;-73
2021/12/26 10:21:22;;;;;;;4.43;2.13;;;-4.50;99.90;;;;;;4987198;28;20068;-72
2021/12/26 10:23:48;;;;;;;3.17;2.42;;;-4.80;99.90;;;;;;5019421;28;20046;-73
2021/12/26 10:26:26;;;;;;;5.28;2.35;;;-4.40;99.90;;;;;;4988962;28;20045;-77
2021/12/26 10:29:23;;;;;;;4.85;2.72;;;-4.60;99.90;;;;;;5019883;28;20498;-77
2021/12/26 10:31:50;;;;;;;6.18;2.75;;;-4.30;99.90;;;;;;5024224;28;20050;-72
2021/12/26 10:34:23;;;;;;;3.20;2.03;;;-4.20;99.90;;;;;;4993963;28;20045;-71
2021/12/26 10:36:50;;;;;;;2.25;1.55;;;-4.10;99.90;;;;;;4993773;28;20054;-78
2021/12/26 10:39:18;;;;;;;4.13;2.38;;;-4.10;99.90;;;;;;4993681;28;20046;-71
2021/12/26 10:41:51;;;;;;;3.65;1.88;;;-2.80;99.90;;;;;;4994477;28;20038;-71
2021/12/26 10:44:31;;;;;;;4.32;2.28;;;-3.40;99.90;;;;;;4994720;28;20041;-77
2021/12/26 10:47:00;;;;;;;3.10;2.30;;;-3.90;99.90;;;;;;4996356;28;20050;-72
2021/12/26 10:49:29;;;;;;;3.15;2.67;;;-3.70;99.90;;;;;;4993402;28;20045;-74
2021/12/26 10:51:55;;;;;;;5.00;2.15;;;-3.80;99.90;;;;;;4992051;28;20061;-75
2021/12/26 10:54:27;;;;;;;4.85;2.90;;;-3.80;99.90;;;;;;5025717;28;20067;-77
2021/12/26 10:57:13;;;;;;;5.47;2.63;;;-3.60;99.90;;;;;;4988335;28;20116;-78
2021/12/26 10:59:41;;;;;;;3.17;2.47;;;-3.50;99.90;;;;;;4969197;28;20060;-76
2021/12/26 11:02:07;;;;;;;4.95;2.65;;;-3.50;99.90;;;;;;4993895;28;20100;-77
2021/12/26 11:04:35;;;;;;;3.33;1.92;;;-3.10;99.90;;;;;;4976458;28;20088;-73
2021/12/26 11:07:09;;;;;;;2.97;1.92;;;-3.50;99.90;;;;;;4997283;28;20508;-72
2021/12/26 11:09:35;;;;;;;2.85;2.03;;;-3.30;99.90;;;;;;4993242;28;20054;-77
2021/12/26 11:12:07;;;;;;;4.00;2.30;;;-3.30;99.90;;;;;;4977467;28;20074;-73
2021/12/26 11:14:53;;;;;;;8.13;2.13;;;-3.10;99.90;;;;;;4976056;28;20069;-74
2021/12/26 11:17:34;;;;;;;4.03;1.95;;;-3.20;99.90;;;;;;4993196;28;20057;-73
2021/12/26 11:19:59;;;;;;;5.85;2.75;;;-3.10;99.90;;;;;;4994289;28;20390;-76
2021/12/26 11:22:26;;;;;;;4.70;2.08;;;-3.00;99.90;;;;;;4992907;28;20038;-75
2021/12/26 11:24:53;;;;;;;3.85;2.53;;;-1.90;99.90;;;;;;5011528;28;20048;-75
2021/12/26 11:27:20;;;;;;;4.22;2.40;;;-2.90;99.90;;;;;;4994685;28;20038;-72
2021/12/26 11:29:48;;;;;;;2.80;1.92;;;-2.90;99.90;;;;;;5015130;28;20053;-74
2021/12/26 11:32:16;;;;;;;2.60;2.10;;;-1.80;99.90;;;;;;4981427;28;20037;-71
2021/12/26 11:34:47;;;;;;;4.30;2.28;;;-2.80;99.90;;;;;;4972082;28;20073;-76
2021/12/26 11:37:13;;;;;;;4.15;2.50;;;-2.70;99.90;;;;;;4997410;28;20100;-75
2021/12/26 11:39:40;;;;;;;4.25;2.35;;;-2.70;99.90;;;;;;4980617;28;20046;-76
2021/12/26 11:42:05;;;;;;;3.80;2.22;;;-2.70;99.90;;;;;;4997345;28;20091;-77
2021/12/26 11:45:10;;;;;;;3.80;2.20;;;-1.60;99.90;;;;;;5014059;28;20050;-76
2021/12/26 11:48:09;;;;;;;3.88;1.95;;;-2.50;99.90;;;;;;4996681;28;20064;-74
2021/12/26 11:51:02;;;;;;;4.57;2.13;;;-2.80;99.90;;;;;;4996642;28;20119;-76
2021/12/26 11:53:54;;;;;;;2.63;2.05;;;-2.60;99.90;;;;;;4954219;28;20533;-76
2021/12/26 11:56:49;;;;;;;2.45;2.25;;;-2.50;99.90;;;;;;5010332;28;20406;-75
2021/12/26 11:59:37;;;;;;;2.75;2.03;;;-2.50;99.90;;;;;;5014865;28;20533;-74
2021/12/26 12:02:03;;;;;;;3.45;2.20;;;-2.40;99.90;;;;;;4991942;28;20056;-74
2021/12/26 12:04:29;;;;;;;2.63;1.75;;;-1.60;99.90;;;;;;4995719;28;20034;-75
2021/12/26 12:07:02;;;;;;;4.68;1.95;;;-2.30;99.90;;;;;;4997056;28;20030;-73
2021/12/26 12:09:39;;;;;;;3.38;2.38;;;-1.60;99.90;;;;;;4996372;28;20461;-72
2021/12/26 12:12:09;;;;;;;3.55;1.80;;;-2.30;99.90;;;;;;4980571;28;20466;-73
2021/12/26 12:14:56;;;;;;;3.67;2.17;;;-2.30;99.90;;;;;;5013211;28;20452;-74
2021/12/26 12:17:31;;;;;;;5.38;2.50;;;-2.20;99.90;;;;;;4995805;28;20378;-74
2021/12/26 12:20:08;;;;;;;3.92;2.17;;;-2.40;99.90;;;;;;5015051;28;20100;-72
2021/12/26 12:22:35;;;;;;;3.28;2.22;;;-2.30;99.90;;;;;;5013901;28;20149;-75
2021/12/26 12:25:33;;;;;;;6.50;2.38;;;-2.30;99.90;;;;;;5009678;28;20050;-73
2021/12/26 12:28:22;;;;;;;2.95;1.98;;;-2.20;99.90;;;;;;4981505;28;20074;-74
2021/12/26 12:30:57;;;;;;;4.07;2.08;;;-2.00;99.90;;;;;;5013854;28;20046;-73
2021/12/26 12:33:30;;;;;;;2.47;1.70;;;-2.20;99.90;;;;;;4995828;28;20053;-73
2021/12/26 12:35:56;;;;;;;4.68;2.50;;;-2.10;99.90;;;;;;4989229;28;20139;-75
2021/12/26 12:38:35;;;;;;;2.65;2.08;;;-2.00;99.90;;;;;;4979282;28;20077;-75
2021/12/26 12:41:02;;;;;;;3.50;2.35;;;-2.20;99.90;;;;;;4974328;28;20399;-74
2021/12/26 12:43:29;;;;;;;3.65;2.45;;;-2.10;99.90;;;;;;4995442;28;20486;-73
2021/12/26 12:45:56;;;;;;;3.88;2.45;;;-2.20;99.90;;;;;;4995891;28;20176;-74
2021/12/26 12:48:40;;;;;;;4.65;2.58;;;-2.10;99.90;;;;;;4996031;28;20061;-73
2021/12/26 12:51:14;;;;;;;3.53;2.17;;;-2.00;99.90;;;;;;5010027;28;20038;-73
2021/12/26 12:53:43;;;;;;;;;;;-1.50;99.90;;;;;;4995556;28;20046;-75
2021/12/26 12:56:29;;;;;;;2.45;1.90;;;-1.90;99.90;;;;;;5029328;28;19980;-73
2021/12/26 12:59:13;;;;;;;3.03;2.13;;;-1.30;99.90;;;;;;5021302;28;20485;-74